sensor_id;sensor_type;location;lat;lon;timestamp;P1;durP1;ratioP1;P2;durP2;ratioP2
59856;SDS011;45733;52.668;6.860;2023-08-31T00:00:33;1.65;;;1.55;;
59856;SDS011;45733;52.668;6.860;2023-08-31T00:03:01;1.60;;;1.50;;
59856;SDS011;45733;52.668;6.860;2023-08-31T00:05:27;1.65;;;1.55;;
59856;SDS011;45733;52.668;6.860;2023-08-31T00:07:56;1.52;;;1.45;;
59856;SDS011;45733;52.668;6.860;2023-08-31T00:10:22;1.25;;;1.25;;
59856;SDS011;45733;52.668;6.860;2023-08-31T00:12:49;1.55;;;1.45;;
59856;SDS011;45733;52.668;6.860;2023-08-31T00:15:15;1.55;;;1.45;;
59856;SDS011;45733;52.668;6.860;2023-08-31T00:17:40;1.40;;;1.35;;
59856;SDS011;45733;52.668;6.860;2023-08-31T00:20:07;1.48;;;1.40;;
59856;SDS011;45733;52.668;6.860;2023-08-31T00:22:37;1.58;;;1.48;;
59856;SDS011;45733;52.668;6.860;2023-08-31T00:25:03;1.27;;;1.27;;
59856;SDS011;45733;52.668;6.860;2023-08-31T00:27:31;1.42;;;1.35;;
59856;SDS011;45733;52.668;6.860;2023-08-31T00:29:56;1.52;;;1.42;;
59856;SDS011;45733;52.668;6.860;2023-08-31T00:32:23;1.52;;;1.42;;
59856;SDS011;45733;52.668;6.860;2023-08-31T00:34:49;1.55;;;1.45;;
59856;SDS011;45733;52.668;6.860;2023-08-31T00:37:15;1.58;;;1.48;;
59856;SDS011;45733;52.668;6.860;2023-08-31T00:39:41;1.55;;;1.45;;
59856;SDS011;45733;52.668;6.860;2023-08-31T00:42:08;1.58;;;1.48;;
59856;SDS011;45733;52.668;6.860;2023-08-31T00:44:34;1.40;;;1.35;;
59856;SDS011;45733;52.668;6.860;2023-08-31T00:47:00;1.42;;;1.38;;
59856;SDS011;45733;52.668;6.860;2023-08-31T00:49:27;1.50;;;1.40;;
59856;SDS011;45733;52.668;6.860;2023-08-31T00:51:53;1.25;;;1.25;;
59856;SDS011;45733;52.668;6.860;2023-08-31T00:54:22;1.27;;;1.27;;
59856;SDS011;45733;52.668;6.860;2023-08-31T00:56:52;1.27;;;1.27;;
59856;SDS011;45733;52.668;6.860;2023-08-31T00:59:19;1.25;;;1.25;;
59856;SDS011;45733;52.668;6.860;2023-08-31T01:02:07;1.15;;;1.15;;
59856;SDS011;45733;52.668;6.860;2023-08-31T01:04:36;1.17;;;1.17;;
59856;SDS011;45733;52.668;6.860;2023-08-31T01:15:17;0.98;;;0.98;;
59856;SDS011;45733;52.668;6.860;2023-08-31T01:17:47;0.85;;;0.85;;
59856;SDS011;45733;52.668;6.860;2023-08-31T01:20:16;0.85;;;0.85;;
59856;SDS011;45733;52.668;6.860;2023-08-31T01:22:57;0.80;;;0.80;;
59856;SDS011;45733;52.668;6.860;2023-08-31T01:25:28;0.75;;;0.75;;
59856;SDS011;45733;52.668;6.860;2023-08-31T01:27:55;0.80;;;0.80;;
59856;SDS011;45733;52.668;6.860;2023-08-31T01:30:23;0.70;;;0.70;;
59856;SDS011;45733;52.668;6.860;2023-08-31T01:32:49;0.60;;;0.60;;
59856;SDS011;45733;52.668;6.860;2023-08-31T01:35:16;0.60;;;0.60;;
59856;SDS011;45733;52.668;6.860;2023-08-31T01:37:50;0.60;;;0.60;;
59856;SDS011;45733;52.668;6.860;2023-08-31T01:40:37;0.60;;;0.60;;
59856;SDS011;45733;52.668;6.860;2023-08-31T01:43:10;0.70;;;0.70;;
59856;SDS011;45733;52.668;6.860;2023-08-31T01:45:36;0.70;;;0.70;;
59856;SDS011;45733;52.668;6.860;2023-08-31T01:48:03;0.82;;;0.82;;
59856;SDS011;45733;52.668;6.860;2023-08-31T01:50:30;0.75;;;0.75;;
59856;SDS011;45733;52.668;6.860;2023-08-31T01:52:55;0.80;;;0.80;;
59856;SDS011;45733;52.668;6.860;2023-08-31T01:55:21;0.80;;;0.80;;
59856;SDS011;45733;52.668;6.860;2023-08-31T01:57:51;0.73;;;0.73;;
59856;SDS011;45733;52.668;6.860;2023-08-31T02:00:17;0.85;;;0.85;;
59856;SDS011;45733;52.668;6.860;2023-08-31T02:02:44;0.80;;;0.80;;
59856;SDS011;45733;52.668;6.860;2023-08-31T02:05:09;0.80;;;0.80;;
59856;SDS011;45733;52.668;6.860;2023-08-31T02:07:35;0.80;;;0.80;;
59856;SDS011;45733;52.668;6.860;2023-08-31T02:10:01;0.80;;;0.80;;
59856;SDS011;45733;52.668;6.860;2023-08-31T02:12:27;0.80;;;0.80;;
59856;SDS011;45733;52.668;6.860;2023-08-31T02:14:53;0.82;;;0.82;;
59856;SDS011;45733;52.668;6.860;2023-08-31T02:17:19;0.80;;;0.80;;
59856;SDS011;45733;52.668;6.860;2023-08-31T02:19:44;0.80;;;0.80;;
59856;SDS011;45733;52.668;6.860;2023-08-31T02:22:10;0.80;;;0.80;;
59856;SDS011;45733;52.668;6.860;2023-08-31T02:24:36;0.80;;;0.80;;
59856;SDS011;45733;52.668;6.860;2023-08-31T02:27:01;0.88;;;0.88;;
59856;SDS011;45733;52.668;6.860;2023-08-31T02:29:27;0.82;;;0.82;;
59856;SDS011;45733;52.668;6.860;2023-08-31T02:31:53;0.80;;;0.80;;
59856;SDS011;45733;52.668;6.860;2023-08-31T02:34:19;0.85;;;0.85;;
59856;SDS011;45733;52.668;6.860;2023-08-31T02:36:45;0.77;;;0.77;;
59856;SDS011;45733;52.668;6.860;2023-08-31T02:39:10;0.80;;;0.80;;
59856;SDS011;45733;52.668;6.860;2023-08-31T02:41:36;0.82;;;0.82;;
59856;SDS011;45733;52.668;6.860;2023-08-31T02:44:02;0.85;;;0.85;;
59856;SDS011;45733;52.668;6.860;2023-08-31T02:46:27;0.77;;;0.77;;
59856;SDS011;45733;52.668;6.860;2023-08-31T02:48:53;0.75;;;0.75;;
59856;SDS011;45733;52.668;6.860;2023-08-31T02:51:19;0.77;;;0.77;;
59856;SDS011;45733;52.668;6.860;2023-08-31T02:53:44;0.70;;;0.70;;
59856;SDS011;45733;52.668;6.860;2023-08-31T02:56:13;0.73;;;0.73;;
59856;SDS011;45733;52.668;6.860;2023-08-31T02:58:39;0.80;;;0.80;;
59856;SDS011;45733;52.668;6.860;2023-08-31T03:01:07;0.70;;;0.70;;
59856;SDS011;45733;52.668;6.860;2023-08-31T03:03:39;0.70;;;0.70;;
59856;SDS011;45733;52.668;6.860;2023-08-31T03:06:08;0.70;;;0.70;;
59856;SDS011;45733;52.668;6.860;2023-08-31T03:08:42;0.77;;;0.77;;
59856;SDS011;45733;52.668;6.860;2023-08-31T03:11:11;0.80;;;0.80;;
59856;SDS011;45733;52.668;6.860;2023-08-31T03:13:48;0.70;;;0.70;;
59856;SDS011;45733;52.668;6.860;2023-08-31T03:16:16;0.70;;;0.70;;
59856;SDS011;45733;52.668;6.860;2023-08-31T03:18:50;0.70;;;0.70;;
59856;SDS011;45733;52.668;6.860;2023-08-31T03:21:16;0.70;;;0.70;;
59856;SDS011;45733;52.668;6.860;2023-08-31T03:23:41;0.70;;;0.70;;
59856;SDS011;45733;52.668;6.860;2023-08-31T03:26:10;0.70;;;0.70;;
59856;SDS011;45733;52.668;6.860;2023-08-31T03:28:35;0.70;;;0.70;;
59856;SDS011;45733;52.668;6.860;2023-08-31T03:31:08;0.70;;;0.70;;
59856;SDS011;45733;52.668;6.860;2023-08-31T03:33:57;0.70;;;0.70;;
59856;SDS011;45733;52.668;6.860;2023-08-31T03:36:22;0.63;;;0.63;;
59856;SDS011;45733;52.668;6.860;2023-08-31T03:38:49;0.70;;;0.70;;
59856;SDS011;45733;52.668;6.860;2023-08-31T03:41:17;0.70;;;0.70;;
59856;SDS011;45733;52.668;6.860;2023-08-31T03:43:43;0.70;;;0.70;;
59856;SDS011;45733;52.668;6.860;2023-08-31T03:46:09;0.65;;;0.65;;
59856;SDS011;45733;52.668;6.860;2023-08-31T03:48:40;0.65;;;0.65;;
59856;SDS011;45733;52.668;6.860;2023-08-31T03:51:09;0.63;;;0.63;;
59856;SDS011;45733;52.668;6.860;2023-08-31T03:53:35;0.60;;;0.60;;
59856;SDS011;45733;52.668;6.860;2023-08-31T03:56:01;0.70;;;0.70;;
59856;SDS011;45733;52.668;6.860;2023-08-31T03:58:29;0.70;;;0.70;;
59856;SDS011;45733;52.668;6.860;2023-08-31T04:00:54;0.70;;;0.70;;
59856;SDS011;45733;52.668;6.860;2023-08-31T04:03:20;0.70;;;0.70;;
59856;SDS011;45733;52.668;6.860;2023-08-31T04:05:54;0.65;;;0.65;;
59856;SDS011;45733;52.668;6.860;2023-08-31T04:08:30;0.63;;;0.63;;
59856;SDS011;45733;52.668;6.860;2023-08-31T04:10:59;0.65;;;0.65;;
59856;SDS011;45733;52.668;6.860;2023-08-31T04:13:25;0.63;;;0.63;;
59856;SDS011;45733;52.668;6.860;2023-08-31T04:15:51;0.60;;;0.60;;
59856;SDS011;45733;52.668;6.860;2023-08-31T04:18:18;0.60;;;0.60;;
59856;SDS011;45733;52.668;6.860;2023-08-31T04:20:51;0.65;;;0.65;;
59856;SDS011;45733;52.668;6.860;2023-08-31T04:23:18;0.70;;;0.70;;
59856;SDS011;45733;52.668;6.860;2023-08-31T04:25:53;0.63;;;0.63;;
59856;SDS011;45733;52.668;6.860;2023-08-31T04:28:19;0.60;;;0.60;;
59856;SDS011;45733;52.668;6.860;2023-08-31T04:30:45;0.68;;;0.68;;
59856;SDS011;45733;52.668;6.860;2023-08-31T04:33:10;0.70;;;0.70;;
59856;SDS011;45733;52.668;6.860;2023-08-31T04:35:36;0.70;;;0.70;;
59856;SDS011;45733;52.668;6.860;2023-08-31T04:38:01;0.60;;;0.60;;
59856;SDS011;45733;52.668;6.860;2023-08-31T04:40:27;0.60;;;0.60;;
59856;SDS011;45733;52.668;6.860;2023-08-31T04:42:56;0.60;;;0.60;;
59856;SDS011;45733;52.668;6.860;2023-08-31T04:45:22;0.70;;;0.70;;
59856;SDS011;45733;52.668;6.860;2023-08-31T04:47:48;0.70;;;0.70;;
59856;SDS011;45733;52.668;6.860;2023-08-31T04:50:15;0.60;;;0.60;;
59856;SDS011;45733;52.668;6.860;2023-08-31T04:52:42;0.63;;;0.63;;
59856;SDS011;45733;52.668;6.860;2023-08-31T04:55:08;0.70;;;0.70;;
59856;SDS011;45733;52.668;6.860;2023-08-31T04:57:34;0.70;;;0.70;;
59856;SDS011;45733;52.668;6.860;2023-08-31T05:00:00;0.70;;;0.70;;
59856;SDS011;45733;52.668;6.860;2023-08-31T05:02:27;0.70;;;0.70;;
59856;SDS011;45733;52.668;6.860;2023-08-31T05:04:53;0.70;;;0.70;;
59856;SDS011;45733;52.668;6.860;2023-08-31T05:07:19;0.70;;;0.70;;
59856;SDS011;45733;52.668;6.860;2023-08-31T05:09:44;0.70;;;0.70;;
59856;SDS011;45733;52.668;6.860;2023-08-31T05:12:10;0.70;;;0.70;;
59856;SDS011;45733;52.668;6.860;2023-08-31T05:14:36;0.70;;;0.70;;
59856;SDS011;45733;52.668;6.860;2023-08-31T05:17:06;0.70;;;0.70;;
59856;SDS011;45733;52.668;6.860;2023-08-31T05:19:32;0.63;;;0.63;;
59856;SDS011;45733;52.668;6.860;2023-08-31T05:21:57;0.70;;;0.70;;
59856;SDS011;45733;52.668;6.860;2023-08-31T05:24:23;0.70;;;0.70;;
59856;SDS011;45733;52.668;6.860;2023-08-31T05:26:49;0.70;;;0.70;;
59856;SDS011;45733;52.668;6.860;2023-08-31T05:29:15;0.73;;;0.73;;
59856;SDS011;45733;52.668;6.860;2023-08-31T05:31:41;0.70;;;0.70;;
59856;SDS011;45733;52.668;6.860;2023-08-31T05:34:09;0.70;;;0.70;;
59856;SDS011;45733;52.668;6.860;2023-08-31T05:36:37;0.70;;;0.70;;
59856;SDS011;45733;52.668;6.860;2023-08-31T05:39:03;0.70;;;0.70;;
59856;SDS011;45733;52.668;6.860;2023-08-31T05:41:31;0.70;;;0.70;;
59856;SDS011;45733;52.668;6.860;2023-08-31T05:43:56;0.80;;;0.80;;
59856;SDS011;45733;52.668;6.860;2023-08-31T05:46:22;0.80;;;0.80;;
59856;SDS011;45733;52.668;6.860;2023-08-31T05:48:48;0.77;;;0.77;;
59856;SDS011;45733;52.668;6.860;2023-08-31T05:51:13;0.82;;;0.82;;
59856;SDS011;45733;52.668;6.860;2023-08-31T05:53:39;0.80;;;0.80;;
59856;SDS011;45733;52.668;6.860;2023-08-31T05:56:07;0.90;;;0.90;;
59856;SDS011;45733;52.668;6.860;2023-08-31T05:58:34;0.90;;;0.90;;
59856;SDS011;45733;52.668;6.860;2023-08-31T06:01:00;0.93;;;0.93;;
59856;SDS011;45733;52.668;6.860;2023-08-31T06:03:27;0.95;;;0.95;;
59856;SDS011;45733;52.668;6.860;2023-08-31T06:05:54;1.00;;;1.00;;
59856;SDS011;45733;52.668;6.860;2023-08-31T06:08:21;1.02;;;1.02;;
59856;SDS011;45733;52.668;6.860;2023-08-31T06:10:46;1.00;;;1.00;;
59856;SDS011;45733;52.668;6.860;2023-08-31T06:13:12;1.05;;;1.05;;
59856;SDS011;45733;52.668;6.860;2023-08-31T06:15:38;0.98;;;0.98;;
59856;SDS011;45733;52.668;6.860;2023-08-31T06:18:04;1.00;;;1.00;;
59856;SDS011;45733;52.668;6.860;2023-08-31T06:20:30;0.90;;;0.90;;
59856;SDS011;45733;52.668;6.860;2023-08-31T06:22:56;0.90;;;0.90;;
59856;SDS011;45733;52.668;6.860;2023-08-31T06:25:22;0.85;;;0.85;;
59856;SDS011;45733;52.668;6.860;2023-08-31T06:27:48;0.82;;;0.82;;
59856;SDS011;45733;52.668;6.860;2023-08-31T06:30:14;0.77;;;0.77;;
59856;SDS011;45733;52.668;6.860;2023-08-31T06:32:44;0.70;;;0.70;;
59856;SDS011;45733;52.668;6.860;2023-08-31T06:35:11;0.77;;;0.77;;
59856;SDS011;45733;52.668;6.860;2023-08-31T06:37:37;0.70;;;0.70;;
59856;SDS011;45733;52.668;6.860;2023-08-31T06:40:04;0.60;;;0.60;;
59856;SDS011;45733;52.668;6.860;2023-08-31T06:42:37;0.60;;;0.60;;
59856;SDS011;45733;52.668;6.860;2023-08-31T06:45:04;0.60;;;0.60;;
59856;SDS011;45733;52.668;6.860;2023-08-31T06:47:31;0.60;;;0.60;;
59856;SDS011;45733;52.668;6.860;2023-08-31T06:49:57;0.50;;;0.50;;
59856;SDS011;45733;52.668;6.860;2023-08-31T06:52:23;0.55;;;0.55;;
59856;SDS011;45733;52.668;6.860;2023-08-31T06:54:49;0.50;;;0.50;;
59856;SDS011;45733;52.668;6.860;2023-08-31T06:57:15;0.60;;;0.60;;
59856;SDS011;45733;52.668;6.860;2023-08-31T06:59:41;0.50;;;0.50;;
59856;SDS011;45733;52.668;6.860;2023-08-31T07:02:06;0.50;;;0.50;;
59856;SDS011;45733;52.668;6.860;2023-08-31T07:04:32;0.60;;;0.60;;
59856;SDS011;45733;52.668;6.860;2023-08-31T07:07:00;0.60;;;0.60;;
59856;SDS011;45733;52.668;6.860;2023-08-31T07:09:26;0.60;;;0.60;;
59856;SDS011;45733;52.668;6.860;2023-08-31T07:11:52;0.60;;;0.60;;
59856;SDS011;45733;52.668;6.860;2023-08-31T07:14:18;0.60;;;0.60;;
59856;SDS011;45733;52.668;6.860;2023-08-31T07:16:46;0.50;;;0.50;;
59856;SDS011;45733;52.668;6.860;2023-08-31T07:19:12;0.57;;;0.57;;
59856;SDS011;45733;52.668;6.860;2023-08-31T07:21:38;0.50;;;0.50;;
59856;SDS011;45733;52.668;6.860;2023-08-31T07:24:04;0.60;;;0.60;;
59856;SDS011;45733;52.668;6.860;2023-08-31T07:26:31;0.60;;;0.60;;
59856;SDS011;45733;52.668;6.860;2023-08-31T07:28:57;0.60;;;0.60;;
59856;SDS011;45733;52.668;6.860;2023-08-31T07:31:23;0.60;;;0.60;;
59856;SDS011;45733;52.668;6.860;2023-08-31T07:33:48;0.52;;;0.52;;
59856;SDS011;45733;52.668;6.860;2023-08-31T07:36:14;0.57;;;0.57;;
59856;SDS011;45733;52.668;6.860;2023-08-31T07:38:40;0.60;;;0.60;;
59856;SDS011;45733;52.668;6.860;2023-08-31T07:41:06;0.50;;;0.50;;
59856;SDS011;45733;52.668;6.860;2023-08-31T07:43:32;0.50;;;0.50;;
59856;SDS011;45733;52.668;6.860;2023-08-31T07:45:57;0.60;;;0.60;;
59856;SDS011;45733;52.668;6.860;2023-08-31T07:48:23;0.60;;;0.60;;
59856;SDS011;45733;52.668;6.860;2023-08-31T07:50:49;0.60;;;0.60;;
59856;SDS011;45733;52.668;6.860;2023-08-31T07:53:14;0.60;;;0.60;;
59856;SDS011;45733;52.668;6.860;2023-08-31T07:55:42;0.60;;;0.60;;
59856;SDS011;45733;52.668;6.860;2023-08-31T07:58:17;0.60;;;0.60;;
59856;SDS011;45733;52.668;6.860;2023-08-31T08:00:42;0.60;;;0.60;;
59856;SDS011;45733;52.668;6.860;2023-08-31T08:03:08;0.60;;;0.60;;
59856;SDS011;45733;52.668;6.860;2023-08-31T08:05:34;0.68;;;0.68;;
59856;SDS011;45733;52.668;6.860;2023-08-31T08:07:59;0.57;;;0.57;;
59856;SDS011;45733;52.668;6.860;2023-08-31T08:10:25;0.60;;;0.60;;
59856;SDS011;45733;52.668;6.860;2023-08-31T08:12:51;0.63;;;0.63;;
59856;SDS011;45733;52.668;6.860;2023-08-31T08:15:17;0.70;;;0.70;;
59856;SDS011;45733;52.668;6.860;2023-08-31T08:17:43;0.70;;;0.70;;
59856;SDS011;45733;52.668;6.860;2023-08-31T08:20:08;0.80;;;0.80;;
59856;SDS011;45733;52.668;6.860;2023-08-31T08:22:35;0.70;;;0.70;;
59856;SDS011;45733;52.668;6.860;2023-08-31T08:25:01;0.73;;;0.73;;
59856;SDS011;45733;52.668;6.860;2023-08-31T08:27:27;0.70;;;0.70;;
59856;SDS011;45733;52.668;6.860;2023-08-31T08:29:56;0.70;;;0.70;;
59856;SDS011;45733;52.668;6.860;2023-08-31T08:32:22;0.70;;;0.70;;
59856;SDS011;45733;52.668;6.860;2023-08-31T08:34:47;0.60;;;0.60;;
59856;SDS011;45733;52.668;6.860;2023-08-31T08:37:13;0.68;;;0.68;;
59856;SDS011;45733;52.668;6.860;2023-08-31T08:39:39;0.68;;;0.68;;
59856;SDS011;45733;52.668;6.860;2023-08-31T08:42:04;0.50;;;0.50;;
59856;SDS011;45733;52.668;6.860;2023-08-31T08:44:32;0.60;;;0.60;;
59856;SDS011;45733;52.668;6.860;2023-08-31T08:47:00;0.60;;;0.60;;
59856;SDS011;45733;52.668;6.860;2023-08-31T08:49:26;0.60;;;0.60;;
59856;SDS011;45733;52.668;6.860;2023-08-31T08:51:55;0.60;;;0.60;;
59856;SDS011;45733;52.668;6.860;2023-08-31T08:54:24;0.80;;;0.80;;
59856;SDS011;45733;52.668;6.860;2023-08-31T08:56:50;0.80;;;0.80;;
59856;SDS011;45733;52.668;6.860;2023-08-31T08:59:16;0.70;;;0.70;;
59856;SDS011;45733;52.668;6.860;2023-08-31T09:01:51;0.60;;;0.60;;
59856;SDS011;45733;52.668;6.860;2023-08-31T09:04:16;0.60;;;0.60;;
59856;SDS011;45733;52.668;6.860;2023-08-31T09:06:42;0.60;;;0.60;;
59856;SDS011;45733;52.668;6.860;2023-08-31T09:09:09;0.70;;;0.70;;
59856;SDS011;45733;52.668;6.860;2023-08-31T09:11:35;0.70;;;0.70;;
59856;SDS011;45733;52.668;6.860;2023-08-31T09:14:13;0.77;;;0.77;;
59856;SDS011;45733;52.668;6.860;2023-08-31T09:16:43;0.80;;;0.80;;
59856;SDS011;45733;52.668;6.860;2023-08-31T09:21:46;0.80;;;0.80;;
59856;SDS011;45733;52.668;6.860;2023-08-31T09:24:15;0.68;;;0.68;;
59856;SDS011;45733;52.668;6.860;2023-08-31T09:26:43;0.90;;;0.90;;
59856;SDS011;45733;52.668;6.860;2023-08-31T09:29:19;0.95;;;0.95;;
59856;SDS011;45733;52.668;6.860;2023-08-31T09:31:50;0.93;;;0.93;;
59856;SDS011;45733;52.668;6.860;2023-08-31T09:34:16;0.80;;;0.80;;
59856;SDS011;45733;52.668;6.860;2023-08-31T09:36:44;0.85;;;0.85;;
59856;SDS011;45733;52.668;6.860;2023-08-31T09:39:12;0.88;;;0.88;;
59856;SDS011;45733;52.668;6.860;2023-08-31T09:41:54;1.00;;;1.00;;
59856;SDS011;45733;52.668;6.860;2023-08-31T09:44:20;0.98;;;0.98;;
59856;SDS011;45733;52.668;6.860;2023-08-31T09:46:46;1.05;;;1.05;;
59856;SDS011;45733;52.668;6.860;2023-08-31T09:49:15;1.13;;;1.13;;
59856;SDS011;45733;52.668;6.860;2023-08-31T09:51:46;1.20;;;1.20;;
59856;SDS011;45733;52.668;6.860;2023-08-31T09:54:14;1.10;;;1.10;;
59856;SDS011;45733;52.668;6.860;2023-08-31T09:56:44;1.05;;;1.05;;
59856;SDS011;45733;52.668;6.860;2023-08-31T09:59:12;1.10;;;1.10;;
59856;SDS011;45733;52.668;6.860;2023-08-31T10:01:40;1.15;;;1.15;;
59856;SDS011;45733;52.668;6.860;2023-08-31T10:04:13;1.15;;;1.15;;
59856;SDS011;45733;52.668;6.860;2023-08-31T10:06:39;1.08;;;1.08;;
59856;SDS011;45733;52.668;6.860;2023-08-31T10:09:05;1.05;;;1.05;;
59856;SDS011;45733;52.668;6.860;2023-08-31T10:11:32;1.20;;;1.20;;
59856;SDS011;45733;52.668;6.860;2023-08-31T10:14:08;1.10;;;1.10;;
59856;SDS011;45733;52.668;6.860;2023-08-31T10:16:43;1.20;;;1.20;;
59856;SDS011;45733;52.668;6.860;2023-08-31T10:19:20;1.10;;;1.10;;
59856;SDS011;45733;52.668;6.860;2023-08-31T10:21:47;0.90;;;0.90;;
59856;SDS011;45733;52.668;6.860;2023-08-31T10:24:14;0.70;;;0.70;;
59856;SDS011;45733;52.668;6.860;2023-08-31T10:26:40;0.70;;;0.70;;
59856;SDS011;45733;52.668;6.860;2023-08-31T10:29:06;0.65;;;0.65;;
59856;SDS011;45733;52.668;6.860;2023-08-31T10:31:50;0.57;;;0.57;;
59856;SDS011;45733;52.668;6.860;2023-08-31T10:34:15;0.50;;;0.50;;
59856;SDS011;45733;52.668;6.860;2023-08-31T10:36:44;0.52;;;0.52;;
59856;SDS011;45733;52.668;6.860;2023-08-31T10:39:15;0.50;;;0.50;;
59856;SDS011;45733;52.668;6.860;2023-08-31T10:41:54;0.50;;;0.50;;
59856;SDS011;45733;52.668;6.860;2023-08-31T10:44:32;0.60;;;0.60;;
59856;SDS011;45733;52.668;6.860;2023-08-31T10:47:11;0.55;;;0.55;;
59856;SDS011;45733;52.668;6.860;2023-08-31T10:49:37;0.60;;;0.60;;
59856;SDS011;45733;52.668;6.860;2023-08-31T10:52:16;0.60;;;0.60;;
59856;SDS011;45733;52.668;6.860;2023-08-31T10:54:46;0.60;;;0.60;;
59856;SDS011;45733;52.668;6.860;2023-08-31T10:57:12;0.80;;;0.80;;
59856;SDS011;45733;52.668;6.860;2023-08-31T10:59:43;0.70;;;0.70;;
59856;SDS011;45733;52.668;6.860;2023-08-31T11:02:37;0.70;;;0.70;;
59856;SDS011;45733;52.668;6.860;2023-08-31T11:05:08;0.80;;;0.80;;
59856;SDS011;45733;52.668;6.860;2023-08-31T11:07:40;0.73;;;0.73;;
59856;SDS011;45733;52.668;6.860;2023-08-31T11:12:51;0.70;;;0.70;;
59856;SDS011;45733;52.668;6.860;2023-08-31T11:15:19;0.80;;;0.80;;
59856;SDS011;45733;52.668;6.860;2023-08-31T11:17:48;0.80;;;0.80;;
59856;SDS011;45733;52.668;6.860;2023-08-31T11:20:19;0.73;;;0.73;;
59856;SDS011;45733;52.668;6.860;2023-08-31T11:22:46;0.85;;;0.85;;
59856;SDS011;45733;52.668;6.860;2023-08-31T11:25:20;0.90;;;0.90;;
59856;SDS011;45733;52.668;6.860;2023-08-31T11:27:55;0.90;;;0.90;;
59856;SDS011;45733;52.668;6.860;2023-08-31T11:30:22;0.82;;;0.82;;
59856;SDS011;45733;52.668;6.860;2023-08-31T11:32:52;0.88;;;0.88;;
59856;SDS011;45733;52.668;6.860;2023-08-31T11:35:19;0.90;;;0.90;;
59856;SDS011;45733;52.668;6.860;2023-08-31T11:37:49;0.90;;;0.90;;
59856;SDS011;45733;52.668;6.860;2023-08-31T11:40:16;0.82;;;0.82;;
59856;SDS011;45733;52.668;6.860;2023-08-31T11:42:42;0.90;;;0.90;;
59856;SDS011;45733;52.668;6.860;2023-08-31T11:45:09;0.90;;;0.90;;
59856;SDS011;45733;52.668;6.860;2023-08-31T11:47:37;0.90;;;0.90;;
59856;SDS011;45733;52.668;6.860;2023-08-31T11:50:04;0.90;;;0.90;;
59856;SDS011;45733;52.668;6.860;2023-08-31T11:52:31;0.90;;;0.90;;
59856;SDS011;45733;52.668;6.860;2023-08-31T11:54:57;0.88;;;0.88;;
59856;SDS011;45733;52.668;6.860;2023-08-31T11:57:26;0.88;;;0.88;;
59856;SDS011;45733;52.668;6.860;2023-08-31T11:59:53;0.90;;;0.90;;
59856;SDS011;45733;52.668;6.860;2023-08-31T12:02:21;0.90;;;0.90;;
59856;SDS011;45733;52.668;6.860;2023-08-31T12:04:47;0.90;;;0.90;;
59856;SDS011;45733;52.668;6.860;2023-08-31T12:07:16;0.85;;;0.85;;
59856;SDS011;45733;52.668;6.860;2023-08-31T12:09:43;0.82;;;0.82;;
59856;SDS011;45733;52.668;6.860;2023-08-31T12:12:17;0.70;;;0.70;;
59856;SDS011;45733;52.668;6.860;2023-08-31T12:14:45;0.80;;;0.80;;
59856;SDS011;45733;52.668;6.860;2023-08-31T12:17:11;0.80;;;0.80;;
59856;SDS011;45733;52.668;6.860;2023-08-31T12:19:37;0.80;;;0.80;;
59856;SDS011;45733;52.668;6.860;2023-08-31T12:22:06;0.70;;;0.70;;
59856;SDS011;45733;52.668;6.860;2023-08-31T12:24:41;0.70;;;0.70;;
59856;SDS011;45733;52.668;6.860;2023-08-31T12:27:07;0.60;;;0.60;;
59856;SDS011;45733;52.668;6.860;2023-08-31T12:29:33;0.60;;;0.60;;
59856;SDS011;45733;52.668;6.860;2023-08-31T12:31:59;0.57;;;0.57;;
59856;SDS011;45733;52.668;6.860;2023-08-31T12:34:25;0.60;;;0.60;;
59856;SDS011;45733;52.668;6.860;2023-08-31T12:36:51;0.60;;;0.60;;
59856;SDS011;45733;52.668;6.860;2023-08-31T12:39:17;0.60;;;0.60;;
59856;SDS011;45733;52.668;6.860;2023-08-31T12:41:43;0.60;;;0.60;;
59856;SDS011;45733;52.668;6.860;2023-08-31T12:44:21;0.68;;;0.68;;
59856;SDS011;45733;52.668;6.860;2023-08-31T12:46:47;0.60;;;0.60;;
59856;SDS011;45733;52.668;6.860;2023-08-31T12:49:13;0.60;;;0.60;;
59856;SDS011;45733;52.668;6.860;2023-08-31T12:51:38;0.65;;;0.65;;
59856;SDS011;45733;52.668;6.860;2023-08-31T12:54:04;0.70;;;0.70;;
59856;SDS011;45733;52.668;6.860;2023-08-31T12:56:30;0.77;;;0.77;;
59856;SDS011;45733;52.668;6.860;2023-08-31T12:58:55;0.80;;;0.80;;
59856;SDS011;45733;52.668;6.860;2023-08-31T13:01:21;0.80;;;0.80;;
59856;SDS011;45733;52.668;6.860;2023-08-31T13:03:48;0.80;;;0.80;;
59856;SDS011;45733;52.668;6.860;2023-08-31T13:06:14;0.85;;;0.85;;
59856;SDS011;45733;52.668;6.860;2023-08-31T13:08:41;0.80;;;0.80;;
59856;SDS011;45733;52.668;6.860;2023-08-31T13:11:08;0.80;;;0.80;;
59856;SDS011;45733;52.668;6.860;2023-08-31T13:13:34;0.80;;;0.80;;
59856;SDS011;45733;52.668;6.860;2023-08-31T13:16:00;0.90;;;0.90;;
59856;SDS011;45733;52.668;6.860;2023-08-31T13:18:26;0.90;;;0.90;;
59856;SDS011;45733;52.668;6.860;2023-08-31T13:20:52;1.10;;;1.10;;
59856;SDS011;45733;52.668;6.860;2023-08-31T13:23:19;1.00;;;1.00;;
59856;SDS011;45733;52.668;6.860;2023-08-31T13:25:46;1.00;;;1.00;;
59856;SDS011;45733;52.668;6.860;2023-08-31T13:28:11;0.95;;;0.95;;
59856;SDS011;45733;52.668;6.860;2023-08-31T13:30:37;1.10;;;1.10;;
59856;SDS011;45733;52.668;6.860;2023-08-31T13:33:03;1.17;;;1.17;;
59856;SDS011;45733;52.668;6.860;2023-08-31T13:35:29;1.20;;;1.20;;
59856;SDS011;45733;52.668;6.860;2023-08-31T13:37:55;1.08;;;1.08;;
59856;SDS011;45733;52.668;6.860;2023-08-31T13:40:21;1.00;;;1.00;;
59856;SDS011;45733;52.668;6.860;2023-08-31T13:42:59;1.00;;;1.00;;
59856;SDS011;45733;52.668;6.860;2023-08-31T13:45:31;0.88;;;0.88;;
59856;SDS011;45733;52.668;6.860;2023-08-31T13:47:57;0.82;;;0.82;;
59856;SDS011;45733;52.668;6.860;2023-08-31T13:50:25;0.80;;;0.80;;
59856;SDS011;45733;52.668;6.860;2023-08-31T13:52:53;0.60;;;0.60;;
59856;SDS011;45733;52.668;6.860;2023-08-31T13:55:19;0.60;;;0.60;;
59856;SDS011;45733;52.668;6.860;2023-08-31T13:57:45;0.60;;;0.60;;
59856;SDS011;45733;52.668;6.860;2023-08-31T14:00:11;0.50;;;0.50;;
59856;SDS011;45733;52.668;6.860;2023-08-31T14:02:38;0.50;;;0.50;;
59856;SDS011;45733;52.668;6.860;2023-08-31T14:05:04;0.60;;;0.60;;
59856;SDS011;45733;52.668;6.860;2023-08-31T14:07:31;0.60;;;0.60;;
59856;SDS011;45733;52.668;6.860;2023-08-31T14:09:57;0.50;;;0.50;;
59856;SDS011;45733;52.668;6.860;2023-08-31T14:12:23;0.60;;;0.60;;
59856;SDS011;45733;52.668;6.860;2023-08-31T14:14:50;0.60;;;0.60;;
59856;SDS011;45733;52.668;6.860;2023-08-31T14:17:16;0.60;;;0.60;;
59856;SDS011;45733;52.668;6.860;2023-08-31T14:19:42;0.60;;;0.60;;
59856;SDS011;45733;52.668;6.860;2023-08-31T14:22:08;0.60;;;0.60;;
59856;SDS011;45733;52.668;6.860;2023-08-31T14:24:35;0.60;;;0.60;;
59856;SDS011;45733;52.668;6.860;2023-08-31T14:27:02;0.63;;;0.63;;
59856;SDS011;45733;52.668;6.860;2023-08-31T14:29:28;0.65;;;0.65;;
59856;SDS011;45733;52.668;6.860;2023-08-31T14:31:54;0.60;;;0.60;;
59856;SDS011;45733;52.668;6.860;2023-08-31T14:34:21;0.60;;;0.60;;
59856;SDS011;45733;52.668;6.860;2023-08-31T14:36:47;0.60;;;0.60;;
59856;SDS011;45733;52.668;6.860;2023-08-31T14:39:13;0.60;;;0.60;;
59856;SDS011;45733;52.668;6.860;2023-08-31T14:41:40;0.60;;;0.60;;
59856;SDS011;45733;52.668;6.860;2023-08-31T14:44:05;0.60;;;0.60;;
59856;SDS011;45733;52.668;6.860;2023-08-31T14:46:31;0.55;;;0.55;;
59856;SDS011;45733;52.668;6.860;2023-08-31T14:48:57;0.50;;;0.50;;
59856;SDS011;45733;52.668;6.860;2023-08-31T14:51:22;0.50;;;0.50;;
59856;SDS011;45733;52.668;6.860;2023-08-31T14:53:48;0.43;;;0.43;;
59856;SDS011;45733;52.668;6.860;2023-08-31T14:56:14;0.50;;;0.50;;
59856;SDS011;45733;52.668;6.860;2023-08-31T14:58:39;0.40;;;0.40;;
59856;SDS011;45733;52.668;6.860;2023-08-31T15:01:05;0.40;;;0.40;;
59856;SDS011;45733;52.668;6.860;2023-08-31T15:03:31;0.40;;;0.40;;